createdAt,value
2023-04-15T00:01:07.010Z,99572.81
2023-04-15T00:03:34.581Z,99574.56
2023-04-15T00:06:02.440Z,99580.56
2023-04-15T00:08:30.137Z,99576.25
2023-04-15T00:10:56.722Z,99580.56
2023-04-15T00:13:23.711Z,99583.13
2023-04-15T00:15:50.323Z,99582.28
2023-04-15T00:18:16.925Z,99582.28
2023-04-15T00:20:43.444Z,99592.53
2023-04-15T00:23:09.987Z,99589.16
2023-04-15T00:25:36.755Z,99584.00
2023-04-15T00:28:04.083Z,99587.41
2023-04-15T00:30:31.532Z,99586.56
2023-04-15T00:32:58.300Z,99585.72
2023-04-15T00:35:25.552Z,99586.59
2023-04-15T00:37:52.179Z,99596.84
2023-04-15T00:40:21.101Z,99596.03
2023-04-15T00:42:48.151Z,99596.03
2023-04-15T00:45:14.682Z,99608.06
2023-04-15T00:47:43.221Z,99608.06
2023-04-15T00:50:10.981Z,99614.91
2023-04-15T00:52:37.794Z,99612.34
2023-04-15T00:55:05.457Z,99623.53
2023-04-15T00:57:32.314Z,99625.22
2023-04-15T00:59:59.145Z,99617.50
2023-04-15T01:02:25.955Z,99632.09
2023-04-15T01:04:52.653Z,99633.84
2023-04-15T01:07:19.546Z,99629.50
2023-04-15T01:09:46.231Z,99637.25
2023-04-15T01:12:15.523Z,99641.53
2023-04-15T01:14:42.412Z,99647.53
2023-04-15T01:17:09.259Z,99646.66
2023-04-15T01:19:37.257Z,99654.38
2023-04-15T01:22:04.184Z,99659.53
2023-04-15T01:24:32.347Z,99669.84
2023-04-15T01:26:59.424Z,99666.38
2023-04-15T01:29:27.432Z,99676.66
2023-04-15T01:31:56.041Z,99679.22
2023-04-15T01:34:23.186Z,99680.97
2023-04-15T01:36:49.766Z,99683.50
2023-04-15T01:39:16.344Z,99686.94
2023-04-15T01:41:42.961Z,99681.78
2023-04-15T01:44:09.550Z,99688.66
2023-04-15T01:46:37.097Z,99696.38
2023-04-15T01:49:03.784Z,99707.53
2023-04-15T01:51:30.347Z,99707.53
2023-04-15T01:53:57.106Z,99702.38
2023-04-15T01:56:25.459Z,99705.81
2023-04-15T01:58:52.465Z,99702.38
2023-04-15T02:01:20.084Z,99706.63
2023-04-15T02:03:47.924Z,99709.22
2023-04-15T02:06:14.971Z,99715.19
2023-04-15T02:08:41.549Z,99722.06
2023-04-15T02:11:08.438Z,99726.34
2023-04-15T02:13:35.110Z,99731.47
2023-04-15T02:16:01.890Z,99737.50
2023-04-15T02:18:28.592Z,99736.59
2023-04-15T02:20:57.339Z,99740.03
2023-04-15T02:23:24.579Z,99742.59
2023-04-15T02:25:53.831Z,99740.88
2023-04-15T02:28:21.357Z,99749.44
2023-04-15T02:30:50.979Z,99750.34
2023-04-15T02:33:18.077Z,99751.19
2023-04-15T02:35:45.490Z,99756.34
2023-04-15T02:38:12.425Z,99751.19
2023-04-15T02:40:39.036Z,99754.59
2023-04-15T02:43:07.155Z,99760.59
2023-04-15T02:45:34.021Z,99765.78
2023-04-15T02:48:06.170Z,99769.19
2023-04-15T02:50:33.054Z,99769.22
2023-04-15T02:53:01.559Z,99774.38
2023-04-15T02:55:28.990Z,99770.03
2023-04-15T02:57:55.725Z,99776.03
2023-04-15T03:00:22.619Z,99784.66
2023-04-15T03:02:52.458Z,99781.19
2023-04-15T03:05:19.247Z,99795.78
2023-04-15T03:07:45.835Z,99797.50
2023-04-15T03:10:12.524Z,99805.25
2023-04-15T03:12:39.525Z,99805.25
2023-04-15T03:15:06.894Z,99808.69
2023-04-15T03:17:33.742Z,99819.88
2023-04-15T03:20:02.867Z,99822.44
2023-04-15T03:22:29.488Z,99822.44
2023-04-15T03:24:56.212Z,99832.78
2023-04-15T03:27:22.958Z,99834.50
2023-04-15T03:29:49.739Z,99831.88
2023-04-15T03:32:16.741Z,99842.19
2023-04-15T03:34:43.722Z,99839.59
2023-04-15T03:37:10.275Z,99844.75
2023-04-15T03:39:36.939Z,99846.47
2023-04-15T03:42:03.923Z,99850.78
2023-04-15T03:44:30.721Z,99851.56
2023-04-15T03:46:57.245Z,99845.59
2023-04-15T03:49:24.585Z,99855.09
2023-04-15T03:51:51.202Z,99853.34
2023-04-15T03:54:17.748Z,99859.34
2023-04-15T03:56:44.277Z,99859.28
2023-04-15T03:59:11.467Z,99872.22
2023-04-15T04:01:38.029Z,99867.91
2023-04-15T04:04:04.712Z,99870.44
2023-04-15T04:06:31.653Z,99877.31
2023-04-15T04:08:58.183Z,99876.50
2023-04-15T04:11:24.792Z,99879.06
2023-04-15T04:13:51.312Z,99879.03
2023-04-15T04:16:17.974Z,99889.34
2023-04-15T04:18:44.595Z,99897.91
2023-04-15T04:21:11.749Z,99903.97
2023-04-15T04:23:38.357Z,99901.34
2023-04-15T04:26:04.967Z,99903.06
2023-04-15T04:28:31.604Z,99907.28
2023-04-15T04:30:58.137Z,99904.72
2023-04-15T04:33:24.733Z,99908.16
2023-04-15T04:35:51.622Z,99913.28
2023-04-15T04:38:18.234Z,99920.13
2023-04-15T04:40:44.818Z,99918.34
2023-04-15T04:43:11.359Z,99920.94
2023-04-15T04:45:37.896Z,99928.69
2023-04-15T04:48:07.247Z,99933.84
2023-04-15T04:50:34.316Z,99933.88
2023-04-15T04:53:01.578Z,99937.22
2023-04-15T04:55:28.443Z,99950.97
2023-04-15T04:57:54.961Z,99946.66
2023-04-15T05:00:21.552Z,99954.38
2023-04-15T05:02:48.565Z,99961.25
2023-04-15T05:05:15.264Z,99971.59
2023-04-15T05:07:42.199Z,99980.16
2023-04-15T05:10:09.245Z,99983.59
2023-04-15T05:12:37.497Z,99988.75
2023-04-15T05:15:05.481Z,99995.59
2023-04-15T05:17:33.300Z,100008.53
2023-04-15T05:19:59.908Z,100009.38
2023-04-15T05:22:26.611Z,100017.06
2023-04-15T05:24:53.210Z,100020.50
2023-04-15T05:27:19.749Z,100025.69
2023-04-15T05:29:46.464Z,100031.72
2023-04-15T05:32:13.033Z,100040.25
2023-04-15T05:34:39.842Z,100047.06
2023-04-15T05:37:06.546Z,100047.13
2023-04-15T05:39:33.162Z,100051.34
2023-04-15T05:42:00.284Z,100053.94
2023-04-15T05:44:26.932Z,100057.41
2023-04-15T05:46:53.496Z,100062.56
2023-04-15T05:49:19.993Z,100071.19
2023-04-15T05:51:47.982Z,100077.25
2023-04-15T05:54:14.541Z,100078.13
2023-04-15T05:56:41.222Z,100085.81
2023-04-15T05:59:07.787Z,100096.16
2023-04-15T06:01:34.969Z,100094.50
2023-04-15T06:04:01.997Z,100105.59
2023-04-15T06:06:28.640Z,100110.72
2023-04-15T06:08:56.028Z,100100.47
2023-04-15T06:11:22.616Z,100110.78
2023-04-15T06:13:49.279Z,100119.47
2023-04-15T06:16:15.955Z,100118.66
2023-04-15T06:18:42.631Z,100127.25
2023-04-15T06:21:09.180Z,100143.66
2023-04-15T06:23:36.553Z,100147.94
2023-04-15T06:26:03.778Z,100152.25
2023-04-15T06:28:30.600Z,100156.56
2023-04-15T06:30:57.329Z,100162.63
2023-04-15T06:33:23.978Z,100162.66
2023-04-15T06:35:51.005Z,100161.84
2023-04-15T06:38:17.537Z,100170.47
2023-04-15T06:40:44.283Z,100167.03
2023-04-15T06:43:10.955Z,100178.25
2023-04-15T06:45:37.535Z,100178.31
2023-04-15T06:48:04.360Z,100185.22
2023-04-15T06:50:30.970Z,100177.53
2023-04-15T06:52:57.566Z,100184.41
2023-04-15T06:55:24.122Z,100185.31
2023-04-15T06:57:50.850Z,100192.25
2023-04-15T07:00:17.805Z,100198.31
2023-04-15T07:02:44.868Z,100205.22
2023-04-15T07:05:11.499Z,100208.66
2023-04-15T07:07:38.439Z,100223.34
2023-04-15T07:10:05.618Z,100224.19
2023-04-15T07:12:32.178Z,100231.97
2023-04-15T07:14:58.744Z,100237.97
2023-04-15T07:17:25.363Z,100243.16
2023-04-15T07:19:52.144Z,100245.81
2023-04-15T07:22:18.744Z,100242.38
2023-04-15T07:24:46.229Z,100254.44
2023-04-15T07:27:12.822Z,100259.66
2023-04-15T07:29:39.389Z,100261.44
2023-04-15T07:32:06.349Z,100259.78
2023-04-15T07:34:33.053Z,100268.41
2023-04-15T07:36:59.609Z,100264.22
2023-04-15T07:39:26.486Z,100287.50
2023-04-15T07:41:53.029Z,100277.22
2023-04-15T07:44:19.554Z,100288.44
2023-04-15T07:46:46.146Z,100291.03
2023-04-15T07:49:13.501Z,100306.50
2023-04-15T07:51:40.149Z,100313.38
2023-04-15T07:54:06.683Z,100310.84
2023-04-15T07:56:33.272Z,100328.03
2023-04-15T07:59:02.411Z,100327.22
2023-04-15T08:01:29.162Z,100336.66
2023-04-15T08:03:55.996Z,100334.06
2023-04-15T08:06:22.858Z,100335.78
2023-04-15T08:08:49.405Z,100332.34
2023-04-15T08:11:16.221Z,100338.34
2023-04-15T08:13:42.853Z,100339.22
2023-04-15T08:16:27.789Z,100349.59
2023-04-15T08:18:56.448Z,100349.63
2023-04-15T08:21:23.840Z,100351.41
2023-04-15T08:23:52.486Z,100358.28
2023-04-15T08:26:19.937Z,100356.59
2023-04-15T08:28:46.968Z,100362.59
2023-04-15T08:31:15.558Z,100363.53
2023-04-15T08:33:42.649Z,100367.03
2023-04-15T08:36:09.423Z,100373.94
2023-04-15T08:38:36.519Z,100381.72
2023-04-15T08:41:07.388Z,100384.34
2023-04-15T08:43:35.927Z,100392.13
2023-04-15T08:46:04.411Z,100398.22
2023-04-15T08:48:33.588Z,100400.84
2023-04-15T08:51:00.875Z,100398.31
2023-04-15T08:53:29.634Z,100403.47
2023-04-15T08:56:00.019Z,100412.16
2023-04-15T08:58:26.779Z,100417.31
2023-04-15T09:00:53.738Z,100420.75
2023-04-15T09:03:21.931Z,100419.75
2023-04-15T09:05:48.618Z,100425.78
2023-04-15T09:08:15.762Z,100430.09
2023-04-15T09:10:42.626Z,100434.41
2023-04-15T09:13:09.510Z,100436.25
2023-04-15T09:15:38.611Z,100438.00
2023-04-15T09:18:06.047Z,100443.22
2023-04-15T09:20:41.675Z,100445.03
2023-04-15T09:23:17.533Z,100446.88
2023-04-15T09:25:44.187Z,100453.94
2023-04-15T09:28:11.411Z,100456.69
2023-04-15T09:30:38.127Z,100460.31
2023-04-15T09:33:08.348Z,100457.84
2023-04-15T09:35:36.852Z,100462.22
2023-04-15T09:38:07.358Z,100470.00
2023-04-15T09:43:13.199Z,100478.84
2023-04-15T09:45:47.047Z,100492.78
2023-04-15T09:50:54.894Z,100504.38
2023-04-15T09:53:23.675Z,100514.78
2023-04-15T09:55:55.915Z,100514.84
2023-04-15T09:58:24.625Z,100506.22
2023-04-15T10:00:52.453Z,100512.28
2023-04-15T10:03:21.989Z,100513.16
2023-04-15T10:05:51.252Z,100503.66
2023-04-15T10:08:21.900Z,100503.69
2023-04-15T10:10:49.188Z,100499.34
2023-04-15T10:13:18.909Z,100501.94
2023-04-15T10:15:57.550Z,100511.47
2023-04-15T10:18:27.771Z,100512.31
2023-04-15T10:20:55.569Z,100527.03
2023-04-15T10:23:23.366Z,100528.66
2023-04-15T10:25:52.250Z,100534.63
2023-04-15T10:28:20.548Z,100532.75
2023-04-15T10:30:48.406Z,100534.47
2023-04-15T10:33:17.204Z,100541.47
2023-04-15T10:35:45.058Z,100545.78
2023-04-15T10:41:31.258Z,100553.63
2023-04-15T10:44:03.399Z,100558.84
2023-04-15T10:46:40.205Z,100564.03
2023-04-15T10:49:13.489Z,100566.59
2023-04-15T10:51:43.569Z,100570.94
2023-04-15T11:05:52.424Z,100589.16
2023-04-15T11:08:39.173Z,100578.75
2023-04-15T11:11:05.874Z,100580.47
2023-04-15T11:13:33.217Z,100583.06
2023-04-15T11:16:01.613Z,100596.88
2023-04-15T11:18:30.766Z,100596.88
2023-04-15T11:21:01.182Z,100596.00
2023-04-15T11:23:39.790Z,100602.91
2023-04-15T11:26:11.716Z,100600.25
2023-04-15T11:28:41.156Z,100608.03
2023-04-15T11:31:11.366Z,100617.56
2023-04-15T11:33:39.389Z,100623.63
2023-04-15T11:36:06.209Z,100620.09
2023-04-15T11:38:34.434Z,100627.91
2023-04-15T11:41:01.225Z,100626.16
2023-04-15T11:43:27.850Z,100628.72
2023-04-15T11:45:57.501Z,100634.81
2023-04-15T11:48:26.699Z,100632.16
2023-04-15T11:50:57.260Z,100642.50
2023-04-15T11:53:24.863Z,100645.03
2023-04-15T11:55:53.567Z,100646.72
2023-04-15T11:58:25.345Z,100647.59
2023-04-15T12:00:55.027Z,100651.00
2023-04-15T12:06:20.082Z,100655.22
2023-04-15T12:16:49.233Z,100661.31
2023-04-15T12:19:23.479Z,100667.94
2023-04-15T12:21:50.802Z,100667.66
2023-04-15T12:24:22.891Z,100664.06
2023-04-15T12:26:53.244Z,100664.06
2023-04-15T12:29:21.258Z,100671.88
2023-04-15T12:31:52.198Z,100664.00
2023-04-15T12:34:26.158Z,100670.94
2023-04-15T12:36:52.667Z,100667.38
2023-04-15T12:39:23.239Z,100669.03
2023-04-15T12:41:49.836Z,100675.88
2023-04-15T12:44:16.398Z,100673.97
2023-04-15T12:46:42.956Z,100673.63
2023-04-15T12:49:09.932Z,100668.28
2023-04-15T12:51:36.460Z,100672.59
2023-04-15T12:54:03.768Z,100668.22
2023-04-15T12:56:30.552Z,100669.72
2023-04-15T12:58:57.471Z,100673.97
2023-04-15T13:01:24.085Z,100669.72
2023-04-15T13:03:51.274Z,100682.06
2023-04-15T13:06:17.937Z,100685.41
2023-04-15T13:08:57.185Z,100687.72
2023-04-15T13:11:25.434Z,100691.13
2023-04-15T13:13:53.060Z,100703.44
2023-04-15T13:16:19.780Z,100701.84
2023-04-15T13:18:46.631Z,100708.06
2023-04-15T13:21:13.403Z,100694.28
2023-04-15T13:23:41.971Z,100701.31
2023-04-15T13:26:08.561Z,100708.31
2023-04-15T13:28:35.338Z,100710.94
2023-04-15T13:31:01.898Z,100716.28
2023-04-15T13:33:28.620Z,100724.97
2023-04-15T13:35:55.192Z,100720.66
2023-04-15T13:38:21.728Z,100721.78
2023-04-15T13:40:48.519Z,100717.50
2023-04-15T13:43:15.138Z,100726.22
2023-04-15T13:45:41.729Z,100726.88
2023-04-15T13:48:08.317Z,100738.06
2023-04-15T13:50:35.034Z,100727.50
2023-04-15T13:53:01.791Z,100737.84
2023-04-15T13:55:28.841Z,100726.34
2023-04-15T13:57:56.883Z,100728.91
2023-04-15T14:00:23.514Z,100740.22
2023-04-15T14:02:50.177Z,100735.72
2023-04-15T14:05:17.188Z,100739.06
2023-04-15T14:07:43.827Z,100745.00
2023-04-15T14:10:10.669Z,100750.28
2023-04-15T14:12:37.244Z,100749.44
2023-04-15T14:15:04.229Z,100752.88
2023-04-15T14:17:30.818Z,100754.59
2023-04-15T14:19:57.381Z,100756.38
2023-04-15T14:22:24.022Z,100759.78
2023-04-15T14:24:53.153Z,100752.78
2023-04-15T14:27:19.819Z,100756.34
2023-04-15T14:29:46.620Z,100751.03
2023-04-15T14:32:14.087Z,100756.19
2023-04-15T14:34:41.387Z,100765.75
2023-04-15T14:37:08.042Z,100761.50
2023-04-15T14:39:34.691Z,100764.13
2023-04-15T14:42:01.334Z,100764.88
2023-04-15T14:44:27.973Z,100761.34
2023-04-15T14:46:54.948Z,100768.34
2023-04-15T14:49:21.582Z,100768.31
2023-04-15T14:51:48.201Z,100771.72
2023-04-15T14:54:15.459Z,100770.81
2023-04-15T14:56:42.026Z,100775.13
2023-04-15T14:59:08.560Z,100773.31
2023-04-15T15:01:35.317Z,100770.63
2023-04-15T15:04:02.181Z,100781.03
2023-04-15T15:06:28.795Z,100778.41
2023-04-15T15:08:55.433Z,100775.88
2023-04-15T15:11:21.969Z,100783.69
2023-04-15T15:13:48.607Z,100790.59
2023-04-15T15:16:15.288Z,100792.28
2023-04-15T15:18:41.986Z,100788.84
2023-04-15T15:21:09.537Z,100786.28
2023-04-15T15:23:36.086Z,100788.09
2023-04-15T15:26:02.688Z,100794.44
2023-04-15T15:28:29.440Z,100791.88
2023-04-15T15:30:56.332Z,100789.25
2023-04-15T15:33:23.459Z,100790.03
2023-04-15T15:35:50.918Z,100799.41
2023-04-15T15:38:17.727Z,100788.88
2023-04-15T15:40:44.504Z,100794.00
2023-04-15T15:43:11.179Z,100787.72
2023-04-15T15:45:37.807Z,100789.28
2023-04-15T15:48:04.926Z,100792.66
2023-04-15T15:50:31.846Z,100791.81
2023-04-15T15:52:58.732Z,100788.28
2023-04-15T15:55:27.134Z,100793.53
2023-04-15T15:57:54.390Z,100797.09
2023-04-15T16:00:21.418Z,100792.78
2023-04-15T16:05:17.548Z,100795.34
2023-04-15T16:07:44.181Z,100803.28
2023-04-15T16:10:11.167Z,100800.72
2023-04-15T16:12:37.748Z,100800.78
2023-04-15T16:15:04.730Z,100797.25
2023-04-15T16:17:31.315Z,100803.41
2023-04-15T16:20:00.684Z,100802.50
2023-04-15T16:22:27.877Z,100806.94
2023-04-15T16:24:54.465Z,100801.75
2023-04-15T16:27:21.126Z,100813.22
2023-04-15T16:29:47.769Z,100810.75
2023-04-15T16:32:14.468Z,100809.97
2023-04-15T16:34:41.364Z,100808.31
2023-04-15T16:37:08.036Z,100813.53
2023-04-15T16:39:34.656Z,100814.50
2023-04-15T16:42:02.467Z,100818.03
2023-04-15T16:44:29.280Z,100826.00
2023-04-15T16:46:56.382Z,100826.97
2023-04-15T16:49:22.956Z,100828.81
2023-04-15T16:51:49.487Z,100830.69
2023-04-15T16:54:16.047Z,100831.66
2023-04-15T16:56:42.676Z,100823.91
2023-04-15T16:59:09.227Z,100821.31
2023-04-15T17:01:36.125Z,100824.00
2023-04-15T17:04:02.970Z,100828.34
2023-04-15T17:06:30.710Z,100831.81
2023-04-15T17:08:57.333Z,100835.41
2023-04-15T17:11:23.967Z,100842.44
2023-04-15T17:13:51.127Z,100843.31
2023-04-15T17:16:17.801Z,100842.47
2023-04-15T17:18:44.799Z,100839.00
2023-04-15T17:21:11.441Z,100842.50
2023-04-15T17:23:37.977Z,100852.09
2023-04-15T17:26:04.545Z,100847.78
2023-04-15T17:28:31.116Z,100851.28
2023-04-15T17:30:57.700Z,100849.56
2023-04-15T17:33:55.794Z,100849.59
2023-04-15T17:36:11.407Z,100853.13
2023-04-15T17:38:37.952Z,100856.69
2023-04-15T17:41:04.904Z,100857.53
2023-04-15T17:43:32.005Z,100858.47
2023-04-15T17:45:58.837Z,100869.03
2023-04-15T17:48:26.322Z,100869.09
2023-04-15T17:50:52.856Z,100874.44
2023-04-15T17:53:19.485Z,100878.88
2023-04-15T17:55:46.554Z,100879.84
2023-04-15T17:58:13.249Z,100881.69
2023-04-15T18:00:39.846Z,100878.28
2023-04-15T18:03:06.798Z,100880.09
2023-04-15T18:05:33.840Z,100885.41
2023-04-15T18:08:00.436Z,100884.59
2023-04-15T18:10:26.986Z,100884.66
2023-04-15T18:12:53.546Z,100876.91
2023-04-15T18:15:20.145Z,100876.13
2023-04-15T18:17:47.963Z,100875.28
2023-04-15T18:20:14.728Z,100882.31
2023-04-15T18:22:42.416Z,100881.50
2023-04-15T18:25:09.192Z,100886.78
2023-04-15T18:27:38.987Z,100887.72
2023-04-15T18:30:07.704Z,100895.69
2023-04-15T18:32:34.376Z,100893.91
2023-04-15T18:35:01.115Z,100895.69
2023-04-15T18:37:29.531Z,100898.31
2023-04-15T18:39:56.248Z,100901.84
2023-04-15T18:42:23.802Z,100902.72
2023-04-15T18:44:51.323Z,100906.22
2023-04-15T18:47:18.044Z,100899.34
2023-04-15T18:49:44.822Z,100905.44
2023-04-15T18:52:11.978Z,100908.94
2023-04-15T18:54:38.593Z,100907.22
2023-04-15T18:57:06.456Z,100915.94
2023-04-15T18:59:33.639Z,100915.94
2023-04-15T19:02:01.369Z,100921.16
2023-04-15T19:04:29.490Z,100918.56
2023-04-15T19:06:56.479Z,100921.16
2023-04-15T19:09:23.069Z,100928.06
2023-04-15T19:11:49.604Z,100933.28
2023-04-15T19:14:17.433Z,100941.97
2023-04-15T19:16:44.044Z,100943.69
2023-04-15T19:19:10.703Z,100949.75
2023-04-15T19:21:37.275Z,100950.63
2023-04-15T19:24:03.974Z,100948.84
2023-04-15T19:26:30.661Z,100956.63
2023-04-15T19:28:58.953Z,100962.72
2023-04-15T19:31:26.341Z,100967.88
2023-04-15T19:33:53.040Z,100967.00
2023-04-15T19:36:19.717Z,100973.03
2023-04-15T19:38:46.253Z,100979.94
2023-04-15T19:41:13.116Z,100974.69
2023-04-15T19:43:39.660Z,100977.25
2023-04-15T19:46:06.806Z,100988.50
2023-04-15T19:48:33.406Z,100985.91
2023-04-15T19:51:00.655Z,100978.09
2023-04-15T19:53:27.234Z,100990.16
2023-04-15T19:55:53.815Z,100983.25
2023-04-15T19:58:20.396Z,100991.88
2023-04-15T20:00:46.981Z,100993.63
2023-04-15T20:03:13.858Z,100992.69
2023-04-15T20:05:40.507Z,100989.22
2023-04-15T20:08:07.092Z,100989.19
2023-04-15T20:10:33.802Z,100992.63
2023-04-15T20:13:00.504Z,100997.78
2023-04-15T20:15:27.339Z,101001.22
2023-04-15T20:17:53.975Z,101003.78
2023-04-15T20:20:21.048Z,101000.31
2023-04-15T20:22:47.863Z,101005.50
2023-04-15T20:25:14.758Z,101000.28
2023-04-15T20:27:41.341Z,101005.47
2023-04-15T20:30:08.591Z,101007.19
2023-04-15T20:32:36.020Z,101009.75
2023-04-15T20:35:04.739Z,101012.34
2023-04-15T20:37:33.399Z,101018.38
2023-04-15T20:40:01.210Z,101014.91
2023-04-15T20:42:27.984Z,101019.22
2023-04-15T20:44:54.560Z,101023.50
2023-04-15T20:47:21.273Z,101015.66
2023-04-15T20:49:47.938Z,101019.06
2023-04-15T20:52:14.554Z,101015.53
2023-04-15T20:54:41.194Z,101014.59
2023-04-15T20:57:07.786Z,101013.66
2023-04-15T20:59:34.935Z,101010.13
2023-04-15T21:02:02.065Z,101011.78
2023-04-15T21:04:28.741Z,101016.91
2023-04-15T21:06:55.552Z,101018.56
2023-04-15T21:09:22.159Z,101023.66
2023-04-15T21:14:19.254Z,101019.22
2023-04-15T21:16:46.101Z,101019.16
2023-04-15T21:19:12.760Z,101014.75
2023-04-15T21:21:39.417Z,101025.09
2023-04-15T21:24:07.824Z,101024.22
2023-04-15T21:26:36.064Z,101023.28
2023-04-15T21:29:03.144Z,101027.56
2023-04-15T21:31:29.917Z,101033.59
2023-04-15T21:33:56.669Z,101024.91
2023-04-15T21:36:23.294Z,101026.63
2023-04-15T21:38:49.912Z,101031.75
2023-04-15T21:41:16.508Z,101038.63
2023-04-15T21:43:43.115Z,101031.72
2023-04-15T21:46:22.129Z,101038.56
2023-04-15T21:48:53.522Z,101040.22
2023-04-15T21:51:20.483Z,101048.81
2023-04-15T21:53:47.048Z,101052.22
2023-04-15T21:56:14.007Z,101047.00
2023-04-15T21:58:40.659Z,101052.19
2023-04-15T22:01:07.255Z,101053.03
2023-04-15T22:03:35.125Z,101055.63
2023-04-15T22:06:03.664Z,101062.50
2023-04-15T22:08:38.634Z,101058.16
2023-04-15T22:11:08.677Z,101053.78
2023-04-15T22:13:35.781Z,101052.06
2023-04-15T22:16:02.805Z,101057.19
2023-04-15T22:18:29.318Z,101052.81
2023-04-15T22:20:56.389Z,101058.78
2023-04-15T22:23:22.917Z,101056.13
2023-04-15T22:25:49.488Z,101062.94
2023-04-15T22:28:16.134Z,101060.28
2023-04-15T22:30:43.478Z,101060.16
2023-04-15T22:33:10.349Z,101057.50
2023-04-15T22:35:37.504Z,101056.59
2023-04-15T22:38:05.054Z,101059.97
2023-04-15T22:40:31.893Z,101059.91
2023-04-15T22:42:58.893Z,101065.94
2023-04-15T22:45:26.028Z,101071.06
2023-04-15T22:47:53.133Z,101068.41
2023-04-15T22:50:20.328Z,101070.94
2023-04-15T22:52:48.424Z,101075.16
2023-04-15T22:55:15.109Z,101072.56
2023-04-15T22:57:42.099Z,101066.47
2023-04-15T23:00:09.816Z,101073.34
2023-04-15T23:02:36.948Z,101073.28
2023-04-15T23:05:11.803Z,101071.50
2023-04-15T23:07:40.435Z,101077.50
2023-04-15T23:10:08.234Z,101069.69
2023-04-15T23:12:34.962Z,101073.94
2023-04-15T23:15:01.686Z,101071.31
2023-04-15T23:17:28.288Z,101076.47
2023-04-15T23:19:54.842Z,101079.00
2023-04-15T23:22:21.403Z,101079.84
2023-04-15T23:24:47.957Z,101086.69
2023-04-15T23:27:14.529Z,101082.34
2023-04-15T23:29:41.088Z,101083.19
2023-04-15T23:32:07.686Z,101083.19
2023-04-15T23:34:34.204Z,101073.69
2023-04-15T23:37:00.959Z,101084.88
2023-04-15T23:39:27.530Z,101082.28
2023-04-15T23:41:54.157Z,101084.88
2023-04-15T23:44:20.725Z,101084.88
2023-04-15T23:46:47.293Z,101084.03
2023-04-15T23:49:13.882Z,101074.50
2023-04-15T23:51:41.030Z,101089.13
2023-04-15T23:54:07.572Z,101081.25
2023-04-15T23:56:34.109Z,101081.22
2023-04-15T23:59:00.868Z,101086.34
